createdAt,value
2018-05-25T00:00:56.916Z,76.60
2018-05-25T00:03:23.917Z,76.60
2018-05-25T00:05:50.709Z,76.80
2018-05-25T00:08:19.081Z,76.20
2018-05-25T00:10:45.861Z,76.20
2018-05-25T00:13:13.069Z,75.90
2018-05-25T00:15:39.438Z,75.90
2018-05-25T00:18:05.861Z,75.90
2018-05-25T00:20:32.568Z,76.10
2018-05-25T00:23:04.582Z,76.50
2018-05-25T00:25:35.896Z,76.30
2018-05-25T00:28:06.782Z,76.00
2018-05-25T00:30:33.653Z,76.10
2018-05-25T00:35:50.372Z,77.20
2018-05-25T00:38:20.381Z,76.60
2018-05-25T00:40:47.064Z,76.60
2018-05-25T00:43:20.352Z,76.60
2018-05-25T00:45:48.551Z,76.60
2018-05-25T00:48:16.373Z,76.90
2018-05-25T00:50:42.988Z,76.90
2018-05-25T00:53:09.409Z,77.00
2018-05-25T00:55:38.587Z,77.20
2018-05-25T00:58:05.187Z,76.50
2018-05-25T01:00:31.965Z,77.60
2018-05-25T01:02:59.067Z,77.70
2018-05-25T01:05:25.473Z,77.60
2018-05-25T01:07:51.984Z,76.80
2018-05-25T01:10:20.484Z,77.00
2018-05-25T01:12:50.232Z,78.80
2018-05-25T01:15:22.991Z,78.20
2018-05-25T01:17:49.496Z,78.00
2018-05-25T01:20:17.809Z,78.40
2018-05-25T01:22:44.219Z,78.40
2018-05-25T01:25:11.939Z,78.70
2018-05-25T01:27:38.664Z,79.60
2018-05-25T01:30:05.484Z,78.70
2018-05-25T01:32:33.177Z,78.70
2018-05-25T01:34:59.586Z,78.70
2018-05-25T01:37:26.946Z,78.80
2018-05-25T01:39:55.013Z,78.80
2018-05-25T01:42:21.397Z,78.70
2018-05-25T01:44:48.849Z,78.70
2018-05-25T01:47:15.927Z,78.30
2018-05-25T01:49:42.278Z,78.00
2018-05-25T01:52:08.647Z,77.80
2018-05-25T01:54:35.357Z,78.10
2018-05-25T01:57:01.933Z,77.80
2018-05-25T01:59:28.517Z,77.80
2018-05-25T02:01:54.909Z,78.10
2018-05-25T02:04:21.334Z,77.90
2018-05-25T02:06:49.729Z,78.80
2018-05-25T02:09:16.188Z,78.00
2018-05-25T02:11:42.699Z,77.40
2018-05-25T02:14:09.493Z,77.70
2018-05-25T02:16:36.140Z,78.40
2018-05-25T02:19:02.559Z,78.10
2018-05-25T02:21:29.365Z,78.20
2018-05-25T02:23:56.848Z,78.40
2018-05-25T02:26:23.315Z,78.30
2018-05-25T02:28:50.432Z,78.70
2018-05-25T02:31:16.783Z,78.60
2018-05-25T02:33:43.166Z,79.10
2018-05-25T02:36:09.524Z,78.90
2018-05-25T02:38:36.240Z,79.30
2018-05-25T02:41:02.685Z,79.60
2018-05-25T02:43:28.991Z,79.50
2018-05-25T02:45:56.068Z,79.80
2018-05-25T02:48:22.370Z,79.80
2018-05-25T02:50:48.752Z,80.00
2018-05-25T02:53:15.113Z,80.40
2018-05-25T02:55:41.798Z,80.20
2018-05-25T02:58:08.115Z,80.40
2018-05-25T03:00:34.460Z,80.10
2018-05-25T03:03:00.744Z,79.80
2018-05-25T03:05:27.108Z,79.60
2018-05-25T03:07:53.421Z,79.60
2018-05-25T03:10:19.760Z,79.60
2018-05-25T03:12:46.077Z,79.70
2018-05-25T03:15:12.587Z,79.70
2018-05-25T03:17:39.599Z,79.50
2018-05-25T03:20:06.328Z,79.50
2018-05-25T03:22:33.767Z,79.70
2018-05-25T03:25:01.437Z,79.60
2018-05-25T03:27:28.155Z,79.50
2018-05-25T03:29:54.533Z,80.20
2018-05-25T03:32:21.759Z,81.20
2018-05-25T03:34:48.641Z,81.20
2018-05-25T03:37:16.333Z,81.20
2018-05-25T03:39:42.981Z,81.00
2018-05-25T03:42:09.611Z,81.00
2018-05-25T03:44:36.155Z,80.80
2018-05-25T03:47:02.544Z,81.00
2018-05-25T03:49:28.853Z,80.90
2018-05-25T03:51:55.861Z,80.80
2018-05-25T03:54:22.236Z,80.70
2018-05-25T03:56:48.588Z,80.70
2018-05-25T03:59:27.076Z,81.00
2018-05-25T04:01:57.214Z,81.00
2018-05-25T04:04:23.547Z,80.70
2018-05-25T04:06:49.840Z,80.70
2018-05-25T04:09:16.152Z,80.70
2018-05-25T04:11:43.347Z,80.90
2018-05-25T04:14:09.718Z,81.20
2018-05-25T04:16:36.150Z,81.40
2018-05-25T04:19:02.440Z,81.60
2018-05-25T04:21:29.768Z,81.30
2018-05-25T04:23:57.057Z,81.40
2018-05-25T04:26:24.098Z,81.40
2018-05-25T04:28:50.436Z,81.50
2018-05-25T04:31:16.832Z,81.30
2018-05-25T04:33:43.130Z,81.20
2018-05-25T04:36:10.176Z,81.20
2018-05-25T04:38:37.218Z,81.10
2018-05-25T04:41:03.504Z,81.00
2018-05-25T04:43:30.608Z,80.70
2018-05-25T04:45:56.921Z,80.70
2018-05-25T04:48:23.331Z,81.00
2018-05-25T04:50:50.534Z,80.20
2018-05-25T04:53:16.902Z,80.20
2018-05-25T04:55:43.263Z,80.10
2018-05-25T04:58:09.587Z,79.50
2018-05-25T05:00:36.011Z,79.20
2018-05-25T05:03:02.359Z,79.20
2018-05-25T05:05:28.720Z,79.40
2018-05-25T05:07:55.026Z,79.20
2018-05-25T05:10:21.419Z,79.30
2018-05-25T05:12:47.716Z,79.30
2018-05-25T05:15:14.000Z,79.40
2018-05-25T05:17:40.298Z,79.40
2018-05-25T05:20:06.664Z,79.40
2018-05-25T05:22:33.288Z,79.50
2018-05-25T05:25:00.341Z,79.00
2018-05-25T05:27:27.188Z,78.90
2018-05-25T05:29:53.985Z,78.70
2018-05-25T05:32:20.597Z,78.60
2018-05-25T05:34:46.983Z,78.30
2018-05-25T05:37:13.786Z,77.80
2018-05-25T05:39:40.459Z,77.60
2018-05-25T05:42:07.197Z,77.90
2018-05-25T05:44:33.900Z,77.80
2018-05-25T05:47:00.701Z,77.50
2018-05-25T05:49:27.580Z,77.10
2018-05-25T05:51:54.179Z,76.30
2018-05-25T05:54:21.625Z,76.60
2018-05-25T05:56:48.072Z,76.70
2018-05-25T05:59:15.572Z,75.60
2018-05-25T06:01:41.962Z,76.00
2018-05-25T06:04:08.292Z,76.10
2018-05-25T06:06:34.684Z,76.00
2018-05-25T06:09:01.263Z,75.90
2018-05-25T06:11:27.750Z,75.30
2018-05-25T06:13:54.376Z,75.30
2018-05-25T06:16:20.941Z,74.60
2018-05-25T06:18:48.192Z,75.80
2018-05-25T06:21:15.237Z,75.80
2018-05-25T06:23:41.857Z,75.40
2018-05-25T06:26:10.920Z,74.50
2018-05-25T06:28:37.256Z,75.00
2018-05-25T06:31:03.607Z,74.70
2018-05-25T06:33:31.040Z,74.30
2018-05-25T06:35:59.935Z,74.20
2018-05-25T06:43:32.941Z,73.20
2018-05-25T06:46:00.186Z,72.10
2018-05-25T06:48:30.031Z,72.10
2018-05-25T06:50:56.639Z,72.50
2018-05-25T06:53:23.132Z,73.00
2018-05-25T06:55:50.841Z,72.40
2018-05-25T06:58:17.371Z,72.40
2018-05-25T07:00:43.643Z,72.00
2018-05-25T07:03:14.619Z,71.10
2018-05-25T07:05:44.792Z,71.20
2018-05-25T07:08:11.216Z,71.20
2018-05-25T07:10:37.935Z,71.10
2018-05-25T07:13:04.241Z,71.30
2018-05-25T07:15:30.592Z,70.90
2018-05-25T07:17:57.831Z,71.10
2018-05-25T07:20:24.368Z,70.60
2018-05-25T07:22:50.657Z,70.60
2018-05-25T07:25:17.478Z,70.70
2018-05-25T07:27:43.805Z,70.70
2018-05-25T07:30:10.168Z,70.70
2018-05-25T07:32:36.545Z,70.80
2018-05-25T07:35:03.020Z,70.60
2018-05-25T07:37:29.535Z,70.20
2018-05-25T07:39:57.780Z,69.60
2018-05-25T07:42:24.131Z,69.80
2018-05-25T07:44:50.477Z,69.20
2018-05-25T07:47:17.106Z,69.30
2018-05-25T07:49:43.612Z,68.40
2018-05-25T07:52:10.223Z,68.20
2018-05-25T07:54:36.568Z,68.90
2018-05-25T07:57:03.653Z,68.20
2018-05-25T07:59:30.272Z,68.20
2018-05-25T08:01:57.313Z,68.50
2018-05-25T08:04:24.168Z,68.30
2018-05-25T08:06:50.836Z,67.60
2018-05-25T08:09:18.626Z,67.90
2018-05-25T08:11:44.989Z,67.20
2018-05-25T08:14:11.301Z,67.50
2018-05-25T08:16:37.922Z,67.80
2018-05-25T08:19:04.284Z,67.90
2018-05-25T08:21:30.638Z,66.40
2018-05-25T08:23:57.061Z,68.30
2018-05-25T08:26:23.448Z,68.50
2018-05-25T08:28:49.823Z,67.50
2018-05-25T08:31:17.137Z,67.10
2018-05-25T08:33:43.525Z,66.30
2018-05-25T08:36:10.382Z,66.50
2018-05-25T08:38:36.805Z,66.50
2018-05-25T08:41:05.685Z,65.90
2018-05-25T08:43:31.924Z,66.40
2018-05-25T08:45:58.226Z,66.10
2018-05-25T08:48:24.470Z,66.20
2018-05-25T08:50:53.621Z,65.80
2018-05-25T08:53:20.112Z,64.90
2018-05-25T08:55:46.470Z,66.00
2018-05-25T08:58:12.845Z,65.50
2018-05-25T09:00:39.299Z,65.00
2018-05-25T09:03:06.125Z,64.80
2018-05-25T09:05:32.820Z,65.30
2018-05-25T09:08:01.146Z,64.30
2018-05-25T09:10:27.605Z,63.70
2018-05-25T09:12:54.364Z,63.70
2018-05-25T09:15:21.760Z,63.60
2018-05-25T09:17:48.143Z,63.80
2018-05-25T09:20:15.261Z,63.10
2018-05-25T09:22:41.608Z,63.00
2018-05-25T09:25:07.901Z,63.10
2018-05-25T09:27:35.868Z,62.70
2018-05-25T09:30:02.198Z,63.10
2018-05-25T09:32:28.506Z,61.80
2018-05-25T09:34:55.029Z,62.40
2018-05-25T09:37:27.893Z,61.80
2018-05-25T09:39:54.195Z,61.80
2018-05-25T09:42:20.616Z,62.00
2018-05-25T09:44:48.733Z,61.90
2018-05-25T09:47:15.061Z,61.90
2018-05-25T09:49:41.405Z,61.30
2018-05-25T09:52:07.794Z,62.00
2018-05-25T09:54:34.680Z,61.40
2018-05-25T09:57:01.799Z,60.70
2018-05-25T09:59:28.345Z,60.70
2018-05-25T10:01:55.122Z,59.00
2018-05-25T10:04:21.405Z,59.40
2018-05-25T10:06:47.969Z,59.50
2018-05-25T10:09:14.711Z,59.20
2018-05-25T10:11:44.001Z,59.00
2018-05-25T10:14:10.457Z,58.50
2018-05-25T10:16:36.941Z,57.90
2018-05-25T10:19:03.796Z,58.00
2018-05-25T10:21:30.200Z,56.90
2018-05-25T10:23:56.446Z,57.40
2018-05-25T10:26:22.829Z,56.60
2018-05-25T10:28:49.249Z,56.50
2018-05-25T10:31:16.698Z,55.20
2018-05-25T10:33:43.093Z,54.10
2018-05-25T10:36:10.274Z,54.30
2018-05-25T10:38:36.692Z,54.20
2018-05-25T10:41:02.982Z,54.20
2018-05-25T10:43:29.408Z,53.80
2018-05-25T10:45:56.448Z,54.80
2018-05-25T10:48:22.862Z,54.00
2018-05-25T10:50:49.189Z,51.80
2018-05-25T10:53:15.597Z,53.50
2018-05-25T10:55:41.994Z,53.70
2018-05-25T10:58:08.950Z,53.60
2018-05-25T11:00:35.368Z,52.20
2018-05-25T11:03:01.710Z,51.70
2018-05-25T11:05:28.081Z,52.80
2018-05-25T11:07:54.783Z,52.40
2018-05-25T11:10:22.198Z,50.90
2018-05-25T11:12:48.498Z,51.00
2018-05-25T11:15:14.969Z,50.10
2018-05-25T11:17:41.242Z,49.00
2018-05-25T11:20:07.578Z,48.90
2018-05-25T11:22:34.103Z,49.50
2018-05-25T11:25:00.487Z,48.80
2018-05-25T11:27:27.044Z,45.80
2018-05-25T11:29:53.290Z,47.60
2018-05-25T11:32:21.159Z,46.10
2018-05-25T11:34:48.092Z,46.30
2018-05-25T11:37:15.483Z,44.90
2018-05-25T11:39:42.024Z,44.00
2018-05-25T11:42:08.386Z,42.70
2018-05-25T11:44:34.903Z,42.40
2018-05-25T11:47:01.486Z,41.40
2018-05-25T11:49:28.008Z,39.80
2018-05-25T11:51:54.402Z,41.20
2018-05-25T11:54:22.120Z,39.70
2018-05-25T11:56:49.632Z,37.50
2018-05-25T11:59:16.032Z,37.40
2018-05-25T12:01:42.576Z,38.10
2018-05-25T12:04:09.133Z,37.40
2018-05-25T12:06:35.462Z,37.70
2018-05-25T12:09:06.872Z,36.70
2018-05-25T12:11:34.687Z,35.10
2018-05-25T12:14:01.349Z,34.50
2018-05-25T12:16:28.718Z,33.10
2018-05-25T12:18:55.100Z,33.10
2018-05-25T12:21:21.607Z,32.40
2018-05-25T12:23:48.040Z,31.20
2018-05-25T12:26:14.460Z,30.00
2018-05-25T12:28:40.769Z,32.60
2018-05-25T12:31:07.852Z,31.70
2018-05-25T12:33:35.669Z,31.40
2018-05-25T12:36:02.107Z,30.20
2018-05-25T12:38:28.507Z,29.80
2018-05-25T12:40:54.993Z,29.40
2018-05-25T12:43:21.565Z,27.60
2018-05-25T12:45:48.328Z,27.10
2018-05-25T12:48:14.697Z,25.90
2018-05-25T12:50:41.105Z,25.60
2018-05-25T12:53:07.455Z,25.80
2018-05-25T12:55:33.848Z,25.30
2018-05-25T12:58:00.921Z,24.90
2018-05-25T13:00:27.976Z,24.30
2018-05-25T13:02:54.489Z,24.00
2018-05-25T13:05:22.666Z,23.80
2018-05-25T13:07:49.122Z,23.80
2018-05-25T13:10:19.011Z,24.60
2018-05-25T13:12:46.384Z,25.20
2018-05-25T13:15:12.783Z,25.20
2018-05-25T13:17:41.344Z,24.20
2018-05-25T13:20:08.895Z,24.90
2018-05-25T13:22:35.593Z,24.50
2018-05-25T13:25:02.228Z,24.00
2018-05-25T13:27:28.809Z,24.60
2018-05-25T13:29:55.226Z,23.70
2018-05-25T13:32:21.509Z,24.60
2018-05-25T13:34:47.891Z,24.30
2018-05-25T13:37:14.298Z,24.20
2018-05-25T13:39:40.801Z,23.30
2018-05-25T13:42:09.313Z,24.10
2018-05-25T13:44:36.087Z,26.30
2018-05-25T13:47:03.506Z,25.80
2018-05-25T13:49:29.879Z,25.80
2018-05-25T13:51:56.297Z,26.10
2018-05-25T13:54:23.483Z,25.70
2018-05-25T13:56:49.903Z,25.70
2018-05-25T13:59:16.231Z,25.70
2018-05-25T14:01:43.160Z,25.60
2018-05-25T14:04:11.362Z,26.20
2018-05-25T14:06:38.001Z,27.40
2018-05-25T14:09:05.623Z,26.70
2018-05-25T14:11:32.712Z,27.00
2018-05-25T14:14:00.160Z,26.50
2018-05-25T14:16:26.586Z,26.50
2018-05-25T14:18:56.216Z,26.30
2018-05-25T14:21:22.534Z,26.80
2018-05-25T14:23:50.333Z,28.80
2018-05-25T14:26:17.048Z,30.50
2018-05-25T14:28:43.818Z,33.70
2018-05-25T14:31:13.775Z,33.80
2018-05-25T14:33:42.232Z,34.40
2018-05-25T14:36:18.331Z,33.60
2018-05-25T14:38:44.833Z,34.20
2018-05-25T14:41:11.280Z,34.50
2018-05-25T14:43:37.692Z,35.00
2018-05-25T14:46:04.064Z,35.10
2018-05-25T14:48:31.399Z,36.80
2018-05-25T14:50:58.992Z,36.80
2018-05-25T14:53:25.652Z,36.10
2018-05-25T14:55:52.039Z,36.20
2018-05-25T14:58:21.760Z,36.20
2018-05-25T15:00:48.178Z,36.70
2018-05-25T15:03:14.907Z,36.60
2018-05-25T15:05:42.364Z,36.60
2018-05-25T15:08:08.784Z,37.00
2018-05-25T15:10:35.137Z,36.20
2018-05-25T15:13:01.524Z,36.70
2018-05-25T15:15:27.784Z,36.70
2018-05-25T15:17:54.047Z,36.70
2018-05-25T15:20:20.370Z,37.20
2018-05-25T15:22:46.876Z,38.20
2018-05-25T15:25:13.545Z,38.00
2018-05-25T15:27:40.030Z,37.60
2018-05-25T15:30:06.382Z,37.40
2018-05-25T15:32:32.768Z,38.40
2018-05-25T15:34:58.946Z,37.10
2018-05-25T15:37:25.531Z,36.20
2018-05-25T15:39:53.264Z,36.20
2018-05-25T15:42:20.055Z,36.20
2018-05-25T15:44:46.332Z,36.00
2018-05-25T15:47:12.761Z,36.50
2018-05-25T15:49:39.172Z,36.00
2018-05-25T15:52:05.687Z,36.00
2018-05-25T15:54:32.587Z,36.00
2018-05-25T15:56:59.031Z,36.10
2018-05-25T15:59:25.293Z,36.00
2018-05-25T16:01:51.830Z,35.40
2018-05-25T16:04:19.217Z,35.80
2018-05-25T16:06:45.596Z,35.80
2018-05-25T16:09:12.080Z,36.10
2018-05-25T16:14:17.526Z,36.00
2018-05-25T16:16:43.894Z,35.00
2018-05-25T16:19:10.980Z,36.00
2018-05-25T16:21:37.452Z,36.00
2018-05-25T16:24:03.749Z,36.00
2018-05-25T16:26:30.335Z,36.10
2018-05-25T16:28:56.760Z,36.00
2018-05-25T16:31:22.974Z,36.30
2018-05-25T16:33:50.058Z,34.50
2018-05-25T16:36:16.430Z,34.50
2018-05-25T16:38:42.784Z,34.90
2018-05-25T16:41:09.098Z,34.80
2018-05-25T16:43:35.484Z,33.50
2018-05-25T16:46:01.778Z,34.90
2018-05-25T16:48:28.547Z,34.30
2018-05-25T16:50:56.678Z,32.80
2018-05-25T16:53:23.203Z,34.20
2018-05-25T16:55:49.593Z,35.50
2018-05-25T16:58:16.779Z,36.10
2018-05-25T17:00:43.300Z,36.10
2018-05-25T17:03:09.693Z,36.00
2018-05-25T17:05:35.933Z,36.10
2018-05-25T17:08:03.067Z,36.00
2018-05-25T17:10:29.584Z,36.00
2018-05-25T17:13:00.239Z,37.20
2018-05-25T17:15:27.065Z,37.00
2018-05-25T17:17:53.433Z,36.20
2018-05-25T17:20:19.660Z,36.70
2018-05-25T17:22:46.088Z,36.60
2018-05-25T17:25:12.480Z,36.00
2018-05-25T17:27:43.297Z,36.00
2018-05-25T17:30:09.610Z,36.50
2018-05-25T17:32:36.600Z,36.00
2018-05-25T17:35:04.100Z,34.30
2018-05-25T17:37:31.638Z,34.30
2018-05-25T17:39:58.158Z,33.30
2018-05-25T17:42:24.858Z,33.90
2018-05-25T17:44:51.348Z,34.70
2018-05-25T17:47:17.847Z,34.90
2018-05-25T17:49:44.153Z,34.90
2018-05-25T17:52:10.461Z,35.80
2018-05-25T17:54:36.779Z,35.70
2018-05-25T17:57:07.893Z,35.90
2018-05-25T17:59:34.185Z,35.90
2018-05-25T18:02:00.558Z,36.90
2018-05-25T18:04:27.602Z,36.80
2018-05-25T18:06:54.005Z,38.70
2018-05-25T18:09:20.465Z,39.30
2018-05-25T18:11:48.973Z,40.10
2018-05-25T18:14:15.294Z,41.40
2018-05-25T18:16:42.042Z,40.80
2018-05-25T18:19:08.398Z,41.20
2018-05-25T18:21:34.700Z,41.70
2018-05-25T18:24:01.027Z,42.00
2018-05-25T18:26:31.606Z,42.40
2018-05-25T18:28:58.062Z,42.80
2018-05-25T18:31:30.992Z,43.10
2018-05-25T18:33:57.321Z,43.50
2018-05-25T18:36:25.383Z,45.10
2018-05-25T18:38:53.382Z,45.10
2018-05-25T18:41:25.555Z,45.10
2018-05-25T18:44:00.410Z,45.00
2018-05-25T18:46:27.581Z,45.30
2018-05-25T18:48:54.600Z,46.10
2018-05-25T18:51:29.254Z,46.30
2018-05-25T18:54:08.338Z,46.60
2018-05-25T18:56:34.896Z,46.80
2018-05-25T18:59:03.896Z,47.10
2018-05-25T19:01:32.978Z,47.40
2018-05-25T19:03:59.639Z,48.30
2018-05-25T19:06:26.338Z,48.40
2018-05-25T19:08:53.107Z,48.80
2018-05-25T19:11:20.359Z,49.40
2018-05-25T19:13:53.299Z,49.50
2018-05-25T19:16:19.681Z,49.90
2018-05-25T19:18:46.723Z,50.60
2018-05-25T19:21:17.878Z,51.80
2018-05-25T19:23:44.243Z,51.80
2018-05-25T19:26:10.574Z,52.60
2018-05-25T19:28:37.533Z,53.50
2018-05-25T19:31:03.839Z,53.50
2018-05-25T19:33:30.280Z,53.80
2018-05-25T19:35:58.325Z,53.70
2018-05-25T19:38:24.839Z,53.70
2018-05-25T19:43:32.928Z,54.00
2018-05-25T19:45:59.255Z,54.50
2018-05-25T19:48:26.228Z,55.10
2018-05-25T19:50:52.545Z,55.10
2018-05-25T19:53:20.324Z,55.00
2018-05-25T19:55:46.744Z,55.10
2018-05-25T19:58:13.399Z,55.10
2018-05-25T20:00:40.014Z,55.00
2018-05-25T20:03:06.453Z,55.50
2018-05-25T20:05:32.708Z,55.50
2018-05-25T20:07:58.971Z,55.80
2018-05-25T20:10:26.725Z,56.20
2018-05-25T20:12:57.895Z,56.50
2018-05-25T20:15:24.244Z,56.60
2018-05-25T20:17:51.392Z,57.10
2018-05-25T20:20:17.822Z,57.00
2018-05-25T20:22:44.139Z,57.40
2018-05-25T20:25:10.428Z,57.70
2018-05-25T20:27:37.805Z,58.20
2018-05-25T20:30:04.108Z,58.10
2018-05-25T20:32:30.450Z,58.00
2018-05-25T20:34:56.782Z,58.50
2018-05-25T20:37:23.000Z,58.70
2018-05-25T20:39:49.242Z,58.80
2018-05-25T20:42:16.289Z,59.20
2018-05-25T20:44:43.371Z,59.80
2018-05-25T20:47:09.655Z,59.10
2018-05-25T20:49:35.901Z,59.40
2018-05-25T20:52:02.195Z,59.70
2018-05-25T20:54:28.496Z,60.00
2018-05-25T20:56:54.743Z,60.30
2018-05-25T20:59:21.287Z,60.30
2018-05-25T21:01:47.731Z,60.50
2018-05-25T21:04:14.076Z,60.60
2018-05-25T21:06:40.484Z,61.50
2018-05-25T21:09:06.783Z,61.50
2018-05-25T21:11:33.041Z,61.50
2018-05-25T21:13:59.484Z,61.60
2018-05-25T21:16:25.921Z,61.40
2018-05-25T21:18:53.087Z,61.50
2018-05-25T21:21:19.588Z,61.50
2018-05-25T21:23:46.610Z,61.40
2018-05-25T21:26:13.719Z,61.30
2018-05-25T21:28:41.112Z,61.30
2018-05-25T21:31:07.507Z,61.20
2018-05-25T21:33:33.757Z,61.20
2018-05-25T21:36:02.636Z,61.20
2018-05-25T21:38:29.096Z,61.20
2018-05-25T21:40:55.374Z,61.10
2018-05-25T21:43:21.601Z,61.20
2018-05-25T21:45:47.918Z,61.10
2018-05-25T21:48:14.716Z,61.70
2018-05-25T21:50:41.257Z,61.90
2018-05-25T21:53:07.675Z,62.10
2018-05-25T21:55:34.209Z,62.20
2018-05-25T21:58:02.367Z,62.20
2018-05-25T22:00:28.789Z,62.40
2018-05-25T22:02:55.039Z,62.50
2018-05-25T22:05:21.595Z,62.40
2018-05-25T22:07:48.089Z,62.70
2018-05-25T22:10:14.555Z,63.10
2018-05-25T22:12:40.806Z,63.10
2018-05-25T22:15:07.152Z,62.60
2018-05-25T22:17:33.728Z,62.90
2018-05-25T22:20:00.032Z,63.30
2018-05-25T22:22:26.297Z,64.00
2018-05-25T22:24:53.102Z,64.20
2018-05-25T22:27:19.649Z,64.20
2018-05-25T22:29:45.950Z,64.30
2018-05-25T22:32:12.492Z,64.50
2018-05-25T22:34:38.782Z,64.80
2018-05-25T22:37:05.035Z,64.60
2018-05-25T22:39:31.277Z,64.80
2018-05-25T22:41:57.485Z,65.10
2018-05-25T22:44:35.893Z,65.20
2018-05-25T22:47:14.279Z,65.70
2018-05-25T22:49:52.857Z,65.80
2018-05-25T22:52:25.108Z,66.00
2018-05-25T22:54:51.433Z,65.60
2018-05-25T22:57:17.796Z,65.20
2018-05-25T22:59:44.105Z,65.50
2018-05-25T23:02:10.495Z,65.90
2018-05-25T23:04:36.843Z,66.10
2018-05-25T23:07:03.116Z,66.10
2018-05-25T23:09:29.359Z,65.90
2018-05-25T23:11:56.407Z,66.50
2018-05-25T23:14:23.447Z,66.40
2018-05-25T23:16:49.870Z,66.40
2018-05-25T23:19:16.129Z,66.70
2018-05-25T23:21:43.264Z,66.80
2018-05-25T23:24:09.641Z,66.80
2018-05-25T23:26:35.924Z,66.80
2018-05-25T23:29:02.290Z,66.80
2018-05-25T23:31:28.586Z,66.70
2018-05-25T23:33:54.851Z,66.70
2018-05-25T23:36:21.345Z,67.00
2018-05-25T23:38:47.697Z,67.20
2018-05-25T23:41:14.812Z,67.40
2018-05-25T23:43:41.096Z,67.40
2018-05-25T23:46:07.350Z,67.00
2018-05-25T23:48:33.635Z,67.10
2018-05-25T23:50:59.888Z,67.50
2018-05-25T23:53:26.171Z,67.50
2018-05-25T23:55:52.622Z,67.50
2018-05-25T23:58:18.966Z,67.60
